Time;durP1;ratioP1;P1;durP2;ratioP2;P2;SDS_P1;SDS_P2;PMS_P1;PMS_P2;Temp;Humidity;BMP_temperature;BMP_pressure;BME280_temperature;BME280_humidity;BME280_pressure;Samples;Min_cycle;Max_cycle;Signal;HPM_P1;HPM_P2
2022/08/03 00:00:07;;;;;;;7.85;3.25;;;;;;;14.51;100.00;93275.16;2130682;27;20106;-75
2022/08/03 00:01:08;;;;;;;4.40;2.90;;;;;;;14.51;100.00;93275.16;2130806;27;20118;-75
2022/08/03 00:02:08;;;;;;;3.03;2.78;;;;;;;14.48;100.00;93270.63;2130757;27;20823;-75
2022/08/03 00:03:10;;;;;;;4.50;3.13;;;;;;;14.45;100.00;93270.75;2131327;27;20109;-74
2022/08/03 00:04:11;;;;;;;3.97;2.80;;;;;;;14.58;100.00;93269.53;2130624;27;20038;-76
2022/08/03 00:05:12;;;;;;;3.42;2.65;;;;;;;14.65;100.00;93268.53;2129443;27;20452;-75
2022/08/03 00:06:13;;;;;;;4.45;2.97;;;;;;;14.58;100.00;93266.84;2131237;27;20079;-74
2022/08/03 00:07:14;;;;;;;3.90;3.08;;;;;;;14.45;100.00;93274.19;2131276;27;20042;-75
2022/08/03 00:08:15;;;;;;;3.88;3.08;;;;;;;14.42;100.00;93275.06;2131286;27;20031;-75
2022/08/03 00:09:16;;;;;;;3.00;2.72;;;;;;;14.40;100.00;93274.75;2131251;27;20461;-75
2022/08/03 00:10:17;;;;;;;3.17;2.88;;;;;;;14.45;100.00;93270.75;2130946;27;20153;-75
2022/08/03 00:11:18;;;;;;;3.80;3.13;;;;;;;14.45;100.00;93271.50;2130638;27;20114;-75
2022/08/03 00:12:19;;;;;;;4.22;2.60;;;;;;;14.44;100.00;93269.22;2130749;27;20022;-74
2022/08/03 00:13:20;;;;;;;3.15;2.85;;;;;;;14.49;100.00;93269.47;2131082;27;20031;-73
2022/08/03 00:14:21;;;;;;;4.68;2.90;;;;;;;14.51;100.00;93269.03;2130530;27;20118;-73
2022/08/03 00:15:22;;;;;;;3.20;2.80;;;;;;;14.41;100.00;93270.13;2130881;27;20554;-73
2022/08/03 00:16:26;;;;;;;3.08;2.88;;;;;;;14.47;100.00;93273.75;2130749;27;20087;-74
2022/08/03 00:17:26;;;;;;;3.60;3.08;;;;;;;14.52;100.00;93267.84;2131246;27;20083;-73
2022/08/03 00:18:27;;;;;;;7.30;3.17;;;;;;;14.50;100.00;93273.66;2130920;27;20034;-74
2022/08/03 00:19:28;;;;;;;3.72;2.42;;;;;;;14.39;100.00;93267.84;2131024;27;20401;-74
2022/08/03 00:20:30;;;;;;;4.10;2.92;;;;;;;14.41;100.00;93276.25;2131249;27;20390;-75
2022/08/03 00:21:30;;;;;;;3.22;3.00;;;;;;;14.43;100.00;93267.75;2131080;27;20023;-73
2022/08/03 00:22:34;;;;;;;3.45;3.15;;;;;;;14.38;100.00;93268.31;2121009;27;20087;-73
2022/08/03 00:23:37;;;;;;;3.35;3.05;;;;;;;14.38;100.00;93276.38;2121711;27;20114;-73
2022/08/03 00:24:38;;;;;;;3.22;2.80;;;;;;;14.36;100.00;93266.81;2130240;27;20030;-72
2022/08/03 00:25:39;;;;;;;2.83;2.63;;;;;;;14.25;100.00;93269.09;2131065;27;20029;-73
2022/08/03 00:26:39;;;;;;;3.53;2.85;;;;;;;14.36;100.00;93274.13;2131235;27;20040;-74
2022/08/03 00:27:40;;;;;;;4.28;2.72;;;;;;;14.48;100.00;93267.19;2121581;27;20054;-74
2022/08/03 00:28:41;;;;;;;4.45;3.20;;;;;;;14.46;100.00;93264.94;2121931;27;20040;-74
2022/08/03 00:29:42;;;;;;;3.88;3.20;;;;;;;14.47;100.00;93263.75;2130253;27;20031;-73
2022/08/03 00:30:43;;;;;;;3.70;3.28;;;;;;;14.49;100.00;93261.41;2130581;27;20034;-74
2022/08/03 00:31:44;;;;;;;3.65;3.20;;;;;;;14.46;100.00;93264.19;2130848;27;20473;-75
2022/08/03 00:32:45;;;;;;;3.50;3.20;;;;;;;14.41;100.00;93273.56;2130482;27;20653;-75
2022/08/03 00:33:46;;;;;;;3.35;3.03;;;;;;;14.35;100.00;93262.63;2130730;27;20030;-73
2022/08/03 00:34:47;;;;;;;3.45;3.00;;;;;;;14.33;100.00;93259.59;2121874;27;20035;-74
2022/08/03 00:35:48;;;;;;;6.57;3.30;;;;;;;14.35;100.00;93261.84;2120839;27;20118;-73
2022/08/03 00:36:49;;;;;;;4.97;3.35;;;;;;;14.33;100.00;93262.28;2130858;27;20031;-73
2022/08/03 00:37:50;;;;;;;7.38;3.50;;;;;;;14.31;100.00;93261.22;2130935;27;20025;-74
2022/08/03 00:38:51;;;;;;;5.05;3.45;;;;;;;14.27;100.00;93265.97;2121778;27;20054;-73
2022/08/03 00:39:52;;;;;;;8.00;3.35;;;;;;;14.27;100.00;93260.59;2121784;27;20897;-74
2022/08/03 00:40:54;;;;;;;3.15;2.85;;;;;;;14.21;100.00;93265.00;2130294;27;20055;-73
2022/08/03 00:41:55;;;;;;;3.35;3.05;;;;;;;14.25;100.00;93265.66;2131107;27;20042;-75
2022/08/03 00:43:00;;;;;;;4.30;3.60;;;;;;;14.06;100.00;93265.50;2131359;27;20449;-73
2022/08/03 00:44:01;;;;;;;3.70;3.40;;;;;;;14.09;100.00;93267.31;2130776;27;20591;-73
2022/08/03 00:45:02;;;;;;;3.53;3.00;;;;;;;14.07;100.00;93264.28;2131235;27;20071;-73
2022/08/03 00:46:03;;;;;;;4.10;3.50;;;;;;;14.03;100.00;93268.28;2131270;27;20035;-73
2022/08/03 00:47:04;;;;;;;3.88;3.55;;;;;;;14.02;100.00;93270.22;2121426;27;20050;-73
2022/08/03 00:48:08;;;;;;;3.80;3.50;;;;;;;14.02;100.00;93264.09;2113221;28;20055;-74
2022/08/03 00:49:10;;;;;;;4.63;3.00;;;;;;;14.09;100.00;93256.56;2122140;27;20027;-74
2022/08/03 00:50:12;;;;;;;6.05;3.63;;;;;;;14.08;100.00;93257.72;2130422;27;20408;-73
2022/08/03 00:51:13;;;;;;;3.78;3.33;;;;;;;14.04;100.00;93259.03;2130092;27;20038;-74
2022/08/03 00:52:15;;;;;;;6.22;3.05;;;;;;;14.01;100.00;93265.28;2130383;27;20027;-74
2022/08/03 00:53:16;;;;;;;6.50;3.90;;;;;;;14.04;100.00;93265.16;2130960;27;20026;-74
2022/08/03 00:54:18;;;;;;;4.85;3.70;;;;;;;14.04;100.00;93259.03;2129183;27;20058;-74
2022/08/03 00:55:19;;;;;;;4.75;4.25;;;;;;;13.97;100.00;93259.28;2112265;28;20108;-74
2022/08/03 00:56:21;;;;;;;3.38;3.08;;;;;;;14.01;100.00;93263.34;2113473;27;20057;-73
2022/08/03 00:57:22;;;;;;;3.85;3.47;;;;;;;14.02;100.00;93256.78;2130379;27;20048;-74
2022/08/03 00:58:23;;;;;;;5.05;3.50;;;;;;;14.01;100.00;93259.91;2120993;27;20051;-74
2022/08/03 00:59:24;;;;;;;4.10;3.70;;;;;;;13.95;100.00;93248.94;2121287;27;20027;-74
2022/08/03 01:00:26;;;;;;;4.53;3.58;;;;;;;13.91;100.00;93256.38;2120902;27;20523;-75
2022/08/03 01:01:27;;;;;;;3.83;3.40;;;;;;;13.91;100.00;93251.00;2121894;27;20346;-74
2022/08/03 01:02:28;;;;;;;6.95;4.00;;;;;;;13.98;100.00;93250.03;2129657;27;20087;-73
2022/08/03 01:03:29;;;;;;;3.45;3.17;;;;;;;13.92;100.00;93254.47;2130679;27;20046;-74
2022/08/03 01:04:30;;;;;;;7.05;3.35;;;;;;;13.83;100.00;93253.19;2130813;27;20036;-74
2022/08/03 01:05:48;;;;;;;4.18;3.38;;;;;;;13.88;100.00;93262.63;2130473;27;20026;-74
2022/08/03 01:06:58;;;;;;;3.67;3.28;;;;;;;13.91;100.00;93251.00;2130448;27;20019;-74
2022/08/03 01:08:21;;;;;;;3.80;3.40;;;;;;;13.81;100.00;93250.16;2130799;27;20118;-74
2022/08/03 01:09:26;;;;;;;3.92;3.53;;;;;;;13.78;100.00;93247.59;2130654;27;20034;-74
2022/08/03 01:10:57;;;;;;;3.83;3.15;;;;;;;13.86;100.00;93257.66;2121016;27;20042;-74
2022/08/03 01:12:16;;;;;;;3.85;3.40;;;;;;;13.92;100.00;93254.47;2126351;27;20030;-74
2022/08/03 01:13:30;;;;;;;5.47;3.70;;;;;;;13.72;100.00;93254.69;2130631;27;20042;-74
2022/08/03 01:14:38;;;;;;;3.92;3.50;;;;;;;13.76;100.00;93258.78;2130536;27;20104;-75
2022/08/03 01:15:49;;;;;;;4.80;3.60;;;;;;;13.77;100.00;93251.44;2129333;27;20101;-74
2022/08/03 01:16:58;;;;;;;4.43;3.40;;;;;;;13.80;100.00;93255.97;2129742;27;20031;-74
2022/08/03 01:18:09;;;;;;;4.80;3.65;;;;;;;13.75;100.00;93248.47;2130756;27;20035;-75
2022/08/03 01:19:31;;;;;;;3.80;3.20;;;;;;;13.69;100.00;93248.22;2130122;27;20034;-74
2022/08/03 01:20:35;;;;;;;3.40;3.10;;;;;;;13.71;100.00;93250.50;2130404;27;20682;-75
2022/08/03 01:22:06;;;;;;;3.90;3.45;;;;;;;13.69;100.00;93248.22;2130320;27;20045;-73
2022/08/03 01:23:28;;;;;;;4.03;3.53;;;;;;;13.69;100.00;93250.91;2130734;27;20038;-73
2022/08/03 01:24:50;;;;;;;4.30;3.90;;;;;;;13.76;100.00;93248.03;2130070;27;20421;-74
2022/08/03 01:26:22;;;;;;;6.57;3.90;;;;;;;13.70;100.00;93251.69;2130801;27;20030;-73
2022/08/03 01:27:56;;;;;;;5.53;3.75;;;;;;;13.77;100.00;93244.16;2129690;27;20475;-74
2022/08/03 01:29:00;;;;;;;6.38;3.40;;;;;;;13.77;100.00;93243.41;2130312;27;20540;-74
2022/08/03 01:30:12;;;;;;;3.97;3.58;;;;;;;13.77;100.00;93249.53;2130338;27;20034;-74
2022/08/03 01:31:17;;;;;;;4.22;3.72;;;;;;;13.76;100.00;93241.91;2130044;27;20042;-74
2022/08/03 01:32:30;;;;;;;4.30;3.90;;;;;;;13.70;100.00;93249.00;2120194;27;20445;-74
2022/08/03 01:33:38;;;;;;;4.35;3.85;;;;;;;13.60;100.00;93242.78;2121151;27;20387;-75
2022/08/03 01:34:45;;;;;;;7.10;3.97;;;;;;;13.66;100.00;93241.06;2122749;27;20034;-73
2022/08/03 01:35:52;;;;;;;5.22;4.07;;;;;;;13.68;100.00;93246.75;2129801;27;20046;-74
2022/08/03 01:36:58;;;;;;;4.35;3.95;;;;;;;13.56;100.00;93239.44;2129715;27;20066;-74
2022/08/03 01:38:05;;;;;;;5.20;3.90;;;;;;;13.59;100.00;93243.97;2129864;27;20038;-73
2022/08/03 01:39:08;;;;;;;4.40;4.00;;;;;;;13.60;100.00;93243.50;2130186;27;20023;-74
2022/08/03 01:40:12;;;;;;;4.03;3.70;;;;;;;13.47;100.00;93244.72;2129993;27;20035;-74
2022/08/03 01:41:17;;;;;;;4.13;3.83;;;;;;;13.54;100.00;93245.25;2129891;27;20128;-73
2022/08/03 01:42:20;;;;;;;3.88;3.58;;;;;;;13.55;100.00;93243.31;2129369;27;20356;-73
2022/08/03 01:43:27;;;;;;;3.78;3.47;;;;;;;13.55;100.00;93241.38;2130505;27;20071;-73
2022/08/03 01:44:32;;;;;;;6.53;4.07;;;;;;;13.50;100.00;93249.97;2128765;27;20518;-74
2022/08/03 01:45:36;;;;;;;4.28;3.70;;;;;;;13.59;100.00;93241.28;2129684;27;20122;-74
2022/08/03 01:46:39;;;;;;;4.95;4.05;;;;;;;13.47;100.00;93237.41;2130605;27;20029;-74
2022/08/03 01:47:43;;;;;;;4.07;3.78;;;;;;;13.48;100.00;93247.00;2129952;27;20015;-75
2022/08/03 01:48:47;;;;;;;4.90;4.50;;;;;;;13.48;100.00;93238.19;2129438;27;20026;-74
2022/08/03 01:49:51;;;;;;;4.25;3.85;;;;;;;13.37;100.00;93245.78;2130000;27;20030;-74
2022/08/03 01:50:54;;;;;;;5.43;4.20;;;;;;;13.39;100.00;93235.38;2130047;27;20031;-75
2022/08/03 01:51:57;;;;;;;4.75;4.03;;;;;;;13.43;100.00;93233.31;2130069;27;20475;-74
2022/08/03 01:52:59;;;;;;;4.45;4.05;;;;;;;13.38;100.00;93236.56;2129440;27;20207;-73
2022/08/03 01:54:01;;;;;;;4.50;4.10;;;;;;;13.39;100.00;93236.16;2130032;27;20027;-73
2022/08/03 01:55:04;;;;;;;4.45;4.00;;;;;;;13.42;100.00;93232.56;2130365;27;20030;-75
2022/08/03 01:56:05;;;;;;;5.85;4.13;;;;;;;13.38;100.00;93231.19;2120363;27;20027;-73
2022/08/03 01:57:08;;;;;;;5.18;4.18;;;;;;;13.26;100.00;93228.09;2121172;27;20046;-74
2022/08/03 01:58:14;;;;;;;4.80;3.90;;;;;;;13.36;100.00;93231.63;2129575;27;20057;-74
2022/08/03 01:59:16;;;;;;;4.75;3.78;;;;;;;13.31;100.00;93232.16;2129440;27;21195;-75
2022/08/03 02:00:18;;;;;;;5.88;4.35;;;;;;;13.33;100.00;93232.47;2130150;27;20030;-74
2022/08/03 02:01:21;;;;;;;4.53;4.13;;;;;;;13.28;100.00;93231.09;2128944;27;20026;-74
2022/08/03 02:02:24;;;;;;;5.95;4.70;;;;;;;13.33;100.00;93227.09;2120674;27;20015;-74
2022/08/03 02:03:27;;;;;;;4.40;3.60;;;;;;;13.17;100.00;93227.19;2120922;27;20023;-74
2022/08/03 02:04:29;;;;;;;5.10;4.10;;;;;;;13.21;100.00;93238.56;2129398;27;20027;-74
2022/08/03 02:05:31;;;;;;;7.95;4.30;;;;;;;13.19;100.00;93230.94;2120810;27;20401;-74
2022/08/03 02:06:34;;;;;;;5.15;4.15;;;;;;;13.21;100.00;93238.56;2121059;27;20442;-73
2022/08/03 02:07:38;;;;;;;4.45;4.03;;;;;;;13.31;100.00;93230.22;2120525;27;20019;-74
2022/08/03 02:08:42;;;;;;;7.70;4.28;;;;;;;13.27;100.00;93231.53;2120876;27;20023;-73
2022/08/03 02:09:45;;;;;;;4.45;4.05;;;;;;;13.26;100.00;93235.38;2130306;27;20032;-73
2022/08/03 02:10:48;;;;;;;4.72;4.25;;;;;;;13.26;100.00;93228.09;2129896;27;20375;-73
2022/08/03 02:11:51;;;;;;;4.10;3.80;;;;;;;13.29;100.00;93232.56;2120449;27;20536;-75
2022/08/03 02:12:54;;;;;;;4.82;4.38;;;;;;;13.32;100.00;93233.66;2121076;27;20026;-73
2022/08/03 02:13:57;;;;;;;4.63;4.22;;;;;;;13.33;100.00;93227.84;2129805;27;20030;-75
2022/08/03 02:14:59;;;;;;;5.03;4.45;;;;;;;13.30;100.00;93231.41;2120553;27;20093;-73
2022/08/03 02:16:03;;;;;;;4.85;4.22;;;;;;;13.29;100.00;93237.94;2120926;27;20114;-75
2022/08/03 02:17:06;;;;;;;4.60;4.20;;;;;;;13.20;100.00;93229.00;2129888;27;20023;-75
2022/08/03 02:18:09;;;;;;;4.75;4.25;;;;;;;13.18;100.00;93234.81;2130115;27;20052;-75
2022/08/03 02:19:11;;;;;;;5.35;4.43;;;;;;;13.25;100.00;93231.19;2129673;27;20091;-74
2022/08/03 02:20:12;;;;;;;4.63;4.22;;;;;;;13.24;100.00;93235.06;2129861;27;20022;-75
2022/08/03 02:21:14;;;;;;;5.40;4.13;;;;;;;13.16;100.00;93231.03;2129324;27;20046;-75
2022/08/03 02:22:16;;;;;;;4.53;4.05;;;;;;;13.17;100.00;93235.22;2130178;27;20031;-75
2022/08/03 02:23:18;;;;;;;4.75;4.22;;;;;;;13.15;100.00;93229.56;2130389;27;20056;-75
2022/08/03 02:24:19;;;;;;;4.93;4.10;;;;;;;13.07;100.00;93226.31;2129584;27;20030;-75
2022/08/03 02:25:20;;;;;;;4.90;4.40;;;;;;;13.10;100.00;93231.59;2129917;27;20029;-74
2022/08/03 02:26:23;;;;;;;5.53;4.15;;;;;;;12.98;100.00;93231.56;2130403;27;20487;-74
2022/08/03 02:27:26;;;;;;;4.93;4.07;;;;;;;13.05;100.00;93229.44;2129662;27;20034;-74
2022/08/03 02:28:34;;;;;;;4.97;4.47;;;;;;;13.08;100.00;93227.81;2130112;27;20031;-74
2022/08/03 02:29:38;;;;;;;4.30;3.90;;;;;;;13.05;100.00;93237.50;2129578;27;20071;-74
2022/08/03 02:30:42;;;;;;;4.82;4.40;;;;;;;13.02;100.00;93222.25;2131923;27;20054;-75
2022/08/03 02:31:45;;;;;;;5.03;4.38;;;;;;;13.06;100.00;93228.25;2130461;27;20026;-73
2022/08/03 02:32:53;;;;;;;5.03;4.00;;;;;;;13.07;100.00;93231.69;2129855;27;20026;-74
2022/08/03 02:34:02;;;;;;;5.15;4.68;;;;;;;13.02;100.00;93230.28;2129722;27;20434;-74
2022/08/03 02:35:08;;;;;;;4.05;3.63;;;;;;;13.10;100.00;93228.91;2129862;27;20043;-75
2022/08/03 02:36:12;;;;;;;4.45;4.10;;;;;;;13.04;100.00;93225.25;2129714;27;20038;-74
2022/08/03 02:37:16;;;;;;;4.82;4.28;;;;;;;13.09;100.00;93219.34;2129652;27;20456;-74
2022/08/03 02:38:20;;;;;;;8.38;4.22;;;;;;;13.07;100.00;93220.94;2129867;27;20038;-74
2022/08/03 02:39:24;;;;;;;6.00;4.55;;;;;;;12.98;100.00;93220.84;2129592;27;20102;-74
2022/08/03 02:40:27;;;;;;;4.70;4.30;;;;;;;12.96;100.00;93215.16;2120059;27;20496;-74
2022/08/03 02:41:34;;;;;;;5.30;4.80;;;;;;;12.92;100.00;93217.19;2120570;27;20072;-73
2022/08/03 02:42:38;;;;;;;5.72;4.35;;;;;;;12.96;100.00;93223.22;2129805;27;20026;-75
2022/08/03 02:43:39;;;;;;;4.50;4.10;;;;;;;12.91;100.00;93215.69;2129318;27;20027;-77
2022/08/03 02:44:46;;;;;;;4.57;4.18;;;;;;;12.96;100.00;93217.84;2120675;28;20400;-75
2022/08/03 02:45:50;;;;;;;6.18;4.25;;;;;;;12.96;100.00;93215.16;2109107;28;20027;-74
2022/08/03 02:46:56;;;;;;;5.97;4.63;;;;;;;13.06;100.00;93217.53;2117180;28;20059;-74
2022/08/03 02:48:02;;;;;;;5.60;4.30;;;;;;;12.97;100.00;93220.09;2121862;27;20464;-74
2022/08/03 02:49:05;;;;;;;6.25;4.25;;;;;;;12.82;100.00;93216.31;2129713;27;20027;-73
2022/08/03 02:50:09;;;;;;;4.47;4.07;;;;;;;12.81;100.00;93215.56;2129569;27;20062;-74
2022/08/03 02:51:11;;;;;;;5.80;4.60;;;;;;;12.87;100.00;93218.47;2129990;27;20106;-74
2022/08/03 02:52:13;;;;;;;5.00;4.45;;;;;;;12.90;100.00;93211.50;2130118;27;20461;-73
2022/08/03 02:53:16;;;;;;;7.03;4.50;;;;;;;12.91;100.00;93221.06;2129524;27;20464;-74
2022/08/03 02:54:18;;;;;;;6.20;4.43;;;;;;;12.98;100.00;93213.53;2130467;27;20098;-74
2022/08/03 02:55:21;;;;;;;5.07;4.53;;;;;;;12.93;100.00;93216.00;2129319;27;20106;-74
2022/08/03 02:56:24;;;;;;;6.43;4.72;;;;;;;12.86;100.00;93211.59;2130251;27;20019;-74
2022/08/03 02:57:28;;;;;;;4.45;4.05;;;;;;;12.92;100.00;93209.88;2129946;27;20503;-75
2022/08/03 02:58:30;;;;;;;5.07;4.57;;;;;;;12.88;100.00;93214.59;2120656;28;20030;-73
2022/08/03 02:59:32;;;;;;;5.30;4.80;;;;;;;12.86;100.00;93208.91;2112759;28;20027;-73
2022/08/03 03:00:33;;;;;;;6.57;4.72;;;;;;;12.85;100.00;93210.09;2120536;27;20019;-74
2022/08/03 03:01:35;;;;;;;5.28;4.63;;;;;;;12.84;100.00;93213.97;2129300;27;20023;-73
2022/08/03 03:02:38;;;;;;;5.22;4.72;;;;;;;12.87;100.00;93212.38;2129964;27;20102;-74
2022/08/03 03:03:40;;;;;;;4.32;3.97;;;;;;;12.88;100.00;93205.81;2129339;27;20030;-73
2022/08/03 03:04:43;;;;;;;4.80;4.40;;;;;;;12.81;100.00;93201.38;2130084;27;20345;-74
2022/08/03 03:05:45;;;;;;;7.10;4.70;;;;;;;12.78;100.00;93211.06;2129748;27;20137;-74
2022/08/03 03:06:47;;;;;;;5.20;4.72;;;;;;;12.77;100.00;93204.16;2130288;27;20026;-74
2022/08/03 03:07:49;;;;;;;8.63;5.05;;;;;;;12.74;100.00;93209.66;2120306;28;20057;-73
2022/08/03 03:08:50;;;;;;;6.20;4.88;;;;;;;12.78;100.00;93204.94;2120881;27;20027;-73
2022/08/03 03:09:52;;;;;;;4.68;4.28;;;;;;;12.83;100.00;93207.09;2129912;27;20429;-73
2022/08/03 03:10:56;;;;;;;5.22;4.65;;;;;;;12.77;100.00;93206.84;2129573;27;20038;-76
2022/08/03 03:11:57;;;;;;;5.45;4.88;;;;;;;12.74;100.00;93206.97;2129868;27;20491;-76
2022/08/03 03:13:00;;;;;;;4.32;4.00;;;;;;;12.75;100.00;93197.75;2120384;28;20411;-75
2022/08/03 03:14:02;;;;;;;5.40;4.57;;;;;;;12.76;100.00;93208.03;2120487;27;20038;-75
2022/08/03 03:15:05;;;;;;;5.65;4.35;;;;;;;12.74;100.00;93209.66;2129819;27;20027;-75
2022/08/03 03:16:07;;;;;;;5.65;4.63;;;;;;;12.65;100.00;93196.88;2119681;28;20468;-73
2022/08/03 03:17:10;;;;;;;6.07;4.65;;;;;;;12.68;100.00;93198.69;2111508;28;20037;-74
2022/08/03 03:18:12;;;;;;;5.05;4.60;;;;;;;12.69;100.00;93202.16;2122034;27;20180;-74
2022/08/03 03:19:15;;;;;;;4.85;4.45;;;;;;;12.64;100.00;93202.66;2131705;27;20051;-73
2022/08/03 03:20:17;;;;;;;5.18;4.53;;;;;;;12.60;100.00;93197.41;2131244;27;20035;-74
2022/08/03 03:21:20;;;;;;;5.07;4.57;;;;;;;12.56;100.00;93205.53;2131600;27;20066;-73
2022/08/03 03:22:22;;;;;;;4.80;4.38;;;;;;;12.56;100.00;93205.53;2112857;28;20030;-73
2022/08/03 03:23:25;;;;;;;5.60;4.30;;;;;;;12.54;100.00;93202.53;2114260;27;20019;-75
2022/08/03 03:24:28;;;;;;;4.88;4.47;;;;;;;12.60;100.00;93200.09;2132107;27;20141;-74
2022/08/03 03:25:33;;;;;;;7.55;4.45;;;;;;;12.67;100.00;93197.19;2131103;27;20515;-73
2022/08/03 03:26:34;;;;;;;6.20;4.93;;;;;;;12.61;100.00;93204.25;2132314;27;20075;-74
2022/08/03 03:27:36;;;;;;;5.22;4.72;;;;;;;12.57;100.00;93199.00;2131848;27;20027;-75
2022/08/03 03:28:37;;;;;;;5.07;4.40;;;;;;;12.61;100.00;93198.91;2131601;27;20471;-75
2022/08/03 03:29:40;;;;;;;5.32;4.63;;;;;;;12.67;100.00;93199.13;2131661;27;20031;-74
2022/08/03 03:30:41;;;;;;;9.60;4.95;;;;;;;12.58;100.00;93199.75;2129954;27;20409;-75
2022/08/03 03:31:42;;;;;;;6.07;5.20;;;;;;;12.58;100.00;93205.84;2131219;27;20095;-74
2022/08/03 03:32:43;;;;;;;6.03;4.80;;;;;;;12.59;100.00;93196.63;2130721;27;20480;-74
2022/08/03 03:33:45;;;;;;;5.70;5.05;;;;;;;12.56;100.00;93204.78;2131378;27;20023;-75
2022/08/03 03:34:46;;;;;;;5.40;4.90;;;;;;;12.60;100.00;93203.50;2131424;27;20371;-75
2022/08/03 03:35:47;;;;;;;5.28;4.78;;;;;;;12.63;100.00;93204.59;2130751;27;20087;-73
2022/08/03 03:36:49;;;;;;;7.60;4.55;;;;;;;12.56;100.00;93205.53;2130395;27;20376;-74
2022/08/03 03:37:50;;;;;;;6.30;4.63;;;;;;;12.47;100.00;93207.34;2121448;27;20027;-74
2022/08/03 03:38:51;;;;;;;6.60;4.75;;;;;;;12.51;100.00;93205.28;2113328;28;20392;-73
2022/08/03 03:39:53;;;;;;;5.82;4.80;;;;;;;12.51;100.00;93206.06;2121842;27;20059;-74
2022/08/03 03:40:54;;;;;;;5.72;4.70;;;;;;;12.44;100.00;93214.31;2118409;27;20167;-74
2022/08/03 03:41:56;;;;;;;5.70;4.50;;;;;;;12.49;100.00;93208.41;2113080;27;20068;-74
2022/08/03 03:42:57;;;;;;;5.15;4.28;;;;;;;12.48;100.00;93209.59;2122358;27;20045;-75
2022/08/03 03:43:58;;;;;;;7.00;4.80;;;;;;;12.49;100.00;93203.06;2131244;27;20041;-74
2022/08/03 03:45:06;;;;;;;5.03;4.53;;;;;;;12.41;100.00;93212.47;2130576;27;20030;-72
2022/08/03 03:46:07;;;;;;;5.80;4.50;;;;;;;12.47;100.00;93212.72;2122246;27;20045;-74
2022/08/03 03:47:08;;;;;;;5.10;4.70;;;;;;;12.45;100.00;93209.69;2119834;27;20031;-74
2022/08/03 03:48:10;;;;;;;5.10;4.60;;;;;;;12.42;100.00;93215.88;2132086;27;20813;-74
2022/08/03 03:49:11;;;;;;;5.90;4.70;;;;;;;12.40;100.00;93208.28;2131682;27;20035;-74
2022/08/03 03:50:14;;;;;;;5.30;4.80;;;;;;;12.40;100.00;93204.84;2131610;27;20458;-74
2022/08/03 03:51:15;;;;;;;4.65;4.25;;;;;;;12.40;100.00;93207.53;2131019;27;20030;-74
2022/08/03 03:52:16;;;;;;;6.40;5.18;;;;;;;12.47;100.00;93204.66;2121705;27;20034;-75
2022/08/03 03:53:17;;;;;;;7.10;4.43;;;;;;;12.51;100.00;93205.28;2121987;27;20126;-75
2022/08/03 03:54:18;;;;;;;6.38;4.75;;;;;;;12.46;100.00;93203.88;2130807;27;20030;-73
2022/08/03 03:55:19;;;;;;;7.45;4.90;;;;;;;12.41;100.00;93212.47;2130877;27;20027;-74
2022/08/03 03:56:20;;;;;;;5.82;4.30;;;;;;;12.45;100.00;93207.00;2131445;27;20110;-73
2022/08/03 03:57:21;;;;;;;5.50;4.88;;;;;;;12.47;100.00;93208.09;2130961;27;20163;-74
2022/08/03 03:58:22;;;;;;;4.95;4.40;;;;;;;12.43;100.00;93215.47;2131022;27;20107;-73
2022/08/03 03:59:23;;;;;;;7.40;5.03;;;;;;;12.44;100.00;93203.56;2130830;27;20515;-73
2022/08/03 04:00:24;;;;;;;8.75;5.18;;;;;;;12.40;100.00;93210.22;2131039;27;20027;-74
2022/08/03 04:01:26;;;;;;;10.65;5.47;;;;;;;12.46;100.00;93203.88;2131518;27;20054;-73
2022/08/03 04:02:27;;;;;;;6.90;5.15;;;;;;;12.49;100.00;93205.72;2121489;27;20030;-73
2022/08/03 04:03:28;;;;;;;5.60;4.75;;;;;;;12.45;100.00;93204.31;2122282;27;20027;-75
2022/08/03 04:11:46;;;;;;;4.78;4.38;;;;;;;12.41;100.00;93206.34;2130886;27;20044;-73
2022/08/03 04:12:50;;;;;;;6.57;5.07;;;;;;;12.35;100.00;93201.50;2087233;28;20033;-74
2022/08/03 04:13:55;;;;;;;4.78;4.30;;;;;;;12.39;100.00;93209.47;2122088;27;20353;-75
2022/08/03 04:14:59;;;;;;;4.95;4.45;;;;;;;12.40;100.00;93213.66;2130668;27;20046;-75
2022/08/03 04:16:01;;;;;;;6.25;4.78;;;;;;;12.42;100.00;93213.22;2130737;27;20083;-75
2022/08/03 04:17:06;;;;;;;6.97;4.60;;;;;;;12.37;100.00;93206.44;2130892;27;20035;-74
2022/08/03 04:18:12;;;;;;;6.43;4.50;;;;;;;12.42;100.00;93205.91;2130859;27;20030;-74
2022/08/03 04:19:24;;;;;;;5.28;4.78;;;;;;;12.38;100.00;93212.56;2130854;27;20035;-75
2022/08/03 04:20:28;;;;;;;5.07;4.57;;;;;;;12.42;100.00;93213.97;2130863;27;20049;-76
2022/08/03 04:21:31;;;;;;;5.22;4.82;;;;;;;12.42;100.00;93213.22;2120376;27;20031;-74
2022/08/03 04:22:33;;;;;;;7.63;4.95;;;;;;;12.48;100.00;93211.53;2116502;27;20122;-75
2022/08/03 04:23:40;;;;;;;5.20;4.80;;;;;;;12.49;100.00;93213.78;2126514;27;20026;-76
2022/08/03 04:24:52;;;;;;;9.63;5.03;;;;;;;12.50;100.00;93212.59;2127018;27;20030;-76
2022/08/03 04:25:55;;;;;;;7.00;4.43;;;;;;;12.53;100.00;93213.69;2127693;27;20102;-76
2022/08/03 04:26:58;;;;;;;4.78;4.38;;;;;;;12.52;100.00;93217.53;2127398;27;20110;-75
2022/08/03 04:28:01;;;;;;;7.18;5.05;;;;;;;12.47;100.00;93218.06;2121842;27;20126;-75
2022/08/03 04:29:05;;;;;;;5.70;4.85;;;;;;;12.52;100.00;93220.97;2122722;27;20212;-75
2022/08/03 04:30:08;;;;;;;5.65;5.05;;;;;;;12.46;100.00;93214.63;2119183;27;20062;-75
2022/08/03 04:31:09;;;;;;;6.28;4.50;;;;;;;12.62;100.00;93221.09;2120237;27;20023;-75
2022/08/03 04:32:11;;;;;;;6.25;5.13;;;;;;;12.44;100.00;93216.97;2127707;27;20026;-76
2022/08/03 04:33:13;;;;;;;5.03;4.55;;;;;;;12.50;100.00;93222.56;2119480;27;20039;-75
2022/08/03 04:34:15;;;;;;;7.07;4.80;;;;;;;12.57;100.00;93217.78;2118823;27;20504;-75
2022/08/03 04:35:17;;;;;;;5.50;4.68;;;;;;;12.56;100.00;93224.31;2128064;27;20802;-75
2022/08/03 04:36:25;;;;;;;6.93;4.68;;;;;;;12.53;100.00;93222.47;2128118;27;20125;-74
2022/08/03 04:37:38;;;;;;;5.57;4.40;;;;;;;12.56;100.00;93223.56;2128169;27;20030;-76
2022/08/03 04:38:52;;;;;;;5.35;4.43;;;;;;;12.59;100.00;93228.06;2109790;28;20032;-76
2022/08/03 04:39:56;;;;;;;8.35;4.22;;;;;;;12.69;100.00;93227.03;2105358;27;20118;-74
2022/08/03 04:40:59;;;;;;;5.75;4.53;;;;;;;12.64;100.00;93232.91;2121401;27;20035;-76
2022/08/03 04:42:05;;;;;;;5.10;4.63;;;;;;;12.60;100.00;93229.59;2127943;27;20519;-75
2022/08/03 04:43:08;;;;;;;6.05;4.82;;;;;;;12.62;100.00;93221.09;2128833;27;20484;-74
2022/08/03 04:44:12;;;;;;;4.93;4.43;;;;;;;12.68;100.00;93230.88;2128062;27;20037;-75
2022/08/03 04:45:15;;;;;;;6.60;4.15;;;;;;;12.74;100.00;93223.81;2128780;27;20033;-75
2022/08/03 04:46:19;;;;;;;7.25;5.40;;;;;;;12.81;100.00;93230.91;2127166;27;20038;-75
2022/08/03 04:47:21;;;;;;;5.70;5.20;;;;;;;12.81;100.00;93226.28;2123672;27;20052;-75
2022/08/03 04:48:22;;;;;;;5.30;4.80;;;;;;;12.87;100.00;93228.47;2123951;27;20078;-74
2022/08/03 04:49:23;;;;;;;5.60;5.00;;;;;;;12.87;100.00;93226.53;2128132;27;20030;-75
2022/08/03 04:50:26;;;;;;;4.45;4.07;;;;;;;12.90;100.00;93231.00;2128423;27;20087;-75
2022/08/03 04:51:28;;;;;;;6.55;4.65;;;;;;;12.92;100.00;93228.69;2128763;27;20023;-74
2022/08/03 04:52:30;;;;;;;5.28;4.78;;;;;;;12.94;100.00;93225.56;2128357;27;20114;-75
2022/08/03 04:53:31;;;;;;;5.78;5.05;;;;;;;12.95;100.00;93232.41;2127943;27;20109;-75
2022/08/03 04:54:39;;;;;;;5.88;5.28;;;;;;;13.04;100.00;93229.88;2129005;27;20076;-75
2022/08/03 04:55:40;;;;;;;5.07;4.60;;;;;;;13.08;100.00;93222.44;2128418;27;20572;-72
2022/08/03 04:56:42;;;;;;;5.85;4.97;;;;;;;13.05;100.00;93229.44;2128353;27;20075;-77
2022/08/03 04:57:43;;;;;;;6.47;4.78;;;;;;;13.09;100.00;93227.41;2128669;27;20038;-73
2022/08/03 04:58:44;;;;;;;5.15;4.65;;;;;;;13.09;100.00;93235.47;2128623;27;20026;-76
2022/08/03 04:59:48;;;;;;;7.20;5.05;;;;;;;13.16;100.00;93233.72;2128569;27;20030;-73
2022/08/03 05:00:50;;;;;;;5.70;4.75;;;;;;;13.17;100.00;93238.69;2128313;27;20147;-76
2022/08/03 05:01:52;;;;;;;5.13;4.43;;;;;;;13.16;100.00;93241.78;2128169;27;20037;-75
2022/08/03 05:02:53;;;;;;;6.50;4.78;;;;;;;13.19;100.00;93235.56;2128545;27;20015;-75